Time;durP1;ratioP1;P1;durP2;ratioP2;P2;SDS_P1;SDS_P2;PMS_P1;PMS_P2;Temp;Humidity;BMP_temperature;BMP_pressure;BME280_temperature;BME280_humidity;BME280_pressure;Samples;Min_cycle;Max_cycle;Signal;HPM_P1;HPM_P2
2023/07/17 00:00:24;;;;;;;7.60;5.43;;;23.40;99.90;;;;;;4981100;28;20232;-89
2023/07/17 00:02:49;;;;;;;6.38;4.68;;;23.40;99.90;;;;;;4979282;28;20260;-89
2023/07/17 00:05:16;;;;;;;6.38;4.70;;;23.30;99.90;;;;;;4979480;28;20597;-89
2023/07/17 00:07:42;;;;;;;5.65;5.00;;;23.30;99.90;;;;;;4981239;28;20198;-88
2023/07/17 00:10:11;;;;;;;7.35;5.85;;;23.30;99.90;;;;;;4984024;28;20655;-88
2023/07/17 00:12:38;;;;;;;7.43;5.10;;;23.20;99.90;;;;;;4981291;28;20624;-89
2023/07/17 00:15:07;;;;;;;5.28;4.20;;;23.30;99.90;;;;;;4979690;28;20632;-88
2023/07/17 00:17:34;;;;;;;7.45;5.20;;;23.30;99.90;;;;;;4964556;28;20557;-88
2023/07/17 00:20:00;;;;;;;5.32;4.50;;;23.30;99.90;;;;;;4979511;28;20574;-89
2023/07/17 00:22:26;;;;;;;5.50;4.60;;;23.30;99.90;;;;;;4979427;28;20186;-90
2023/07/17 00:24:53;;;;;;;5.05;4.55;;;23.30;99.90;;;;;;4980603;28;20171;-89
2023/07/17 00:27:20;;;;;;;5.78;4.95;;;23.30;99.90;;;;;;4979411;28;20203;-89
2023/07/17 00:29:46;;;;;;;5.93;4.75;;;23.30;99.90;;;;;;4980621;28;20178;-90
2023/07/17 00:32:13;;;;;;;6.95;4.65;;;23.30;99.90;;;;;;4980028;28;20193;-91
2023/07/17 00:34:39;;;;;;;5.65;4.45;;;23.20;99.90;;;;;;4980845;28;20175;-90
2023/07/17 00:37:06;;;;;;;7.90;4.95;;;23.20;99.90;;;;;;4979287;28;20543;-90
2023/07/17 00:39:32;;;;;;;5.32;4.65;;;23.10;99.90;;;;;;4980912;28;20166;-91
2023/07/17 00:41:58;;;;;;;5.28;4.40;;;23.10;99.90;;;;;;4978948;28;20643;-91
2023/07/17 00:44:23;;;;;;;5.65;4.90;;;23.00;99.90;;;;;;4979215;28;20237;-91
2023/07/17 00:46:52;;;;;;;4.75;3.95;;;23.00;99.90;;;;;;4979948;28;20234;-90
2023/07/17 00:49:19;;;;;;;4.72;4.05;;;22.90;99.90;;;;;;4980245;28;20178;-91
2023/07/17 00:51:45;;;;;;;6.43;4.50;;;22.90;99.90;;;;;;4962907;28;20241;-92
2023/07/17 00:54:14;;;;;;;6.15;4.97;;;22.80;99.90;;;;;;4980851;28;20265;-92
2023/07/17 00:56:42;;;;;;;4.80;4.32;;;22.70;99.90;;;;;;4964189;28;20186;-91
2023/07/17 00:59:08;;;;;;;8.10;4.53;;;22.70;99.90;;;;;;4980044;28;20170;-91
2023/07/17 01:01:34;;;;;;;6.28;4.40;;;22.70;99.90;;;;;;4977002;28;20186;-91
2023/07/17 01:04:04;;;;;;;4.45;4.05;;;22.70;99.90;;;;;;4960374;28;20193;-91
2023/07/17 01:06:30;;;;;;;5.30;4.55;;;22.60;99.90;;;;;;4977059;28;20174;-91
2023/07/17 01:08:58;;;;;;;4.28;3.88;;;22.60;99.90;;;;;;4978443;28;20214;-90
2023/07/17 01:11:23;;;;;;;5.30;4.10;;;22.60;99.90;;;;;;4977254;28;20190;-91
2023/07/17 01:13:51;;;;;;;4.65;4.25;;;22.60;99.90;;;;;;4976999;28;20185;-91
2023/07/17 01:16:17;;;;;;;5.38;3.90;;;22.50;99.90;;;;;;4976681;28;20269;-92
2023/07/17 01:18:42;;;;;;;7.35;4.25;;;22.50;99.90;;;;;;4976947;28;20186;-91
2023/07/17 01:21:11;;;;;;;6.18;4.28;;;22.40;99.90;;;;;;4975865;28;20175;-90
2023/07/17 01:23:37;;;;;;;4.68;4.00;;;22.40;99.90;;;;;;4976125;28;20221;-91
2023/07/17 01:26:17;;;;;;;4.95;4.20;;;22.40;99.90;;;;;;4976664;28;20175;-91
2023/07/17 01:28:45;;;;;;;4.82;4.10;;;22.30;99.90;;;;;;4975536;28;20214;-90
2023/07/17 01:31:11;;;;;;;4.10;3.70;;;22.30;99.90;;;;;;4975376;28;20179;-90
2023/07/17 01:33:37;;;;;;;4.72;4.07;;;22.30;99.90;;;;;;4976596;28;20175;-90
2023/07/17 01:36:05;;;;;;;4.57;4.18;;;22.30;99.90;;;;;;4976540;28;20208;-91
2023/07/17 01:38:31;;;;;;;5.63;4.22;;;22.30;99.90;;;;;;4975371;28;20615;-88
2023/07/17 01:40:56;;;;;;;5.60;4.05;;;22.20;99.90;;;;;;4976480;28;20182;-89
2023/07/17 01:43:22;;;;;;;5.47;4.43;;;22.20;99.90;;;;;;4975366;28;20193;-89
2023/07/17 01:45:48;;;;;;;5.25;4.40;;;22.20;99.90;;;;;;4976298;28;20234;-89
2023/07/17 01:48:17;;;;;;;5.88;4.30;;;22.20;99.90;;;;;;4976121;28;20578;-90
2023/07/17 01:50:46;;;;;;;5.97;3.80;;;22.10;99.90;;;;;;4959582;28;20596;-89
2023/07/17 01:53:13;;;;;;;5.70;4.10;;;22.10;99.90;;;;;;4975031;28;20218;-89
2023/07/17 01:55:39;;;;;;;4.20;3.78;;;22.10;99.90;;;;;;4975303;28;20187;-89
2023/07/17 01:58:05;;;;;;;4.07;3.67;;;22.00;99.90;;;;;;4974904;28;20187;-89
2023/07/17 02:00:30;;;;;;;4.78;3.90;;;22.00;99.90;;;;;;4974897;28;20182;-90
2023/07/17 02:02:56;;;;;;;4.47;3.67;;;22.00;99.90;;;;;;4976434;28;20175;-89
2023/07/17 02:05:22;;;;;;;5.20;4.30;;;22.00;99.90;;;;;;4976054;28;20179;-89
2023/07/17 02:07:47;;;;;;;5.65;4.15;;;22.00;99.90;;;;;;4975151;28;20265;-89
2023/07/17 02:10:13;;;;;;;6.00;4.22;;;21.90;99.90;;;;;;4976004;28;20540;-88
2023/07/17 02:12:39;;;;;;;8.80;4.57;;;21.90;99.90;;;;;;4973666;28;20179;-88
2023/07/17 02:15:06;;;;;;;5.13;4.30;;;21.80;99.90;;;;;;4958652;28;20197;-88
2023/07/17 02:17:32;;;;;;;5.00;4.20;;;21.80;99.90;;;;;;4976293;28;20659;-89
2023/07/17 02:19:58;;;;;;;5.07;4.30;;;21.80;99.90;;;;;;4958750;28;20213;-88
2023/07/17 02:22:24;;;;;;;4.43;3.67;;;21.80;99.90;;;;;;4975965;28;20710;-88
2023/07/17 02:24:50;;;;;;;7.13;4.35;;;21.70;99.90;;;;;;4959706;28;20183;-89
2023/07/17 02:27:16;;;;;;;4.72;4.03;;;21.70;99.90;;;;;;4977060;28;20229;-88
2023/07/17 02:29:42;;;;;;;6.38;4.18;;;21.70;99.90;;;;;;4979338;28;20195;-88
2023/07/17 02:32:07;;;;;;;4.97;4.20;;;21.70;99.90;;;;;;4980415;28;20182;-88
2023/07/17 02:34:33;;;;;;;5.00;4.10;;;21.60;99.90;;;;;;4980072;28;20218;-88
2023/07/17 02:36:59;;;;;;;8.05;4.57;;;21.60;99.90;;;;;;4978864;28;20182;-88
2023/07/17 02:39:24;;;;;;;5.40;4.30;;;21.60;99.90;;;;;;4975541;28;20190;-89
2023/07/17 02:41:50;;;;;;;5.00;3.88;;;21.60;99.90;;;;;;4974427;28;20262;-89
2023/07/17 02:44:16;;;;;;;5.57;4.93;;;21.60;99.90;;;;;;4974056;28;20214;-89
2023/07/17 02:46:41;;;;;;;5.93;4.47;;;21.60;99.90;;;;;;4958127;28;20237;-90
2023/07/17 02:49:11;;;;;;;6.15;4.55;;;21.50;99.90;;;;;;4974387;28;20178;-89
2023/07/17 02:51:37;;;;;;;5.50;4.28;;;21.50;99.90;;;;;;4958733;28;20183;-89
2023/07/17 02:54:03;;;;;;;4.90;4.22;;;21.50;99.90;;;;;;4957929;28;20280;-89
2023/07/17 02:56:29;;;;;;;8.60;4.90;;;21.50;99.90;;;;;;4973977;28;20281;-91
2023/07/17 02:58:54;;;;;;;5.22;4.72;;;21.50;99.90;;;;;;4975239;28;20261;-91
2023/07/17 03:01:20;;;;;;;7.38;4.93;;;21.50;99.90;;;;;;4973848;28;20183;-91
2023/07/17 03:03:46;;;;;;;8.63;4.63;;;21.50;99.90;;;;;;4974948;28;20226;-92
2023/07/17 03:06:12;;;;;;;4.57;4.18;;;21.40;99.90;;;;;;4974747;28;20183;-91
2023/07/17 03:08:38;;;;;;;5.68;4.65;;;21.50;99.90;;;;;;4958646;28;20210;-91
2023/07/17 03:11:04;;;;;;;6.63;4.60;;;21.50;99.90;;;;;;4974379;28;20285;-91
2023/07/17 03:13:30;;;;;;;5.45;4.85;;;21.50;99.90;;;;;;4957597;28;20190;-92
2023/07/17 03:15:58;;;;;;;8.85;4.32;;;21.60;99.90;;;;;;4974105;28;20210;-91
2023/07/17 03:18:27;;;;;;;4.55;4.10;;;21.50;99.90;;;;;;4958409;28;20665;-92
2023/07/17 03:20:56;;;;;;;5.38;4.63;;;21.60;99.90;;;;;;4975338;28;20183;-92
2023/07/17 03:23:22;;;;;;;6.13;4.47;;;21.60;99.90;;;;;;4957583;28;20178;-91
2023/07/17 03:25:47;;;;;;;5.55;4.50;;;21.60;99.90;;;;;;4974493;28;20178;-90
2023/07/17 03:28:13;;;;;;;6.80;4.00;;;21.60;99.90;;;;;;4973203;28;20229;-90
2023/07/17 03:30:42;;;;;;;4.85;4.20;;;21.60;99.90;;;;;;4973688;28;20272;-90
2023/07/17 03:33:08;;;;;;;5.30;4.47;;;21.70;99.90;;;;;;4974842;28;20182;-90
2023/07/17 03:35:34;;;;;;;4.97;4.47;;;21.70;99.90;;;;;;4974532;28;20549;-90
2023/07/17 03:38:00;;;;;;;7.28;4.90;;;21.70;99.90;;;;;;4975658;28;20170;-89
2023/07/17 03:40:25;;;;;;;5.68;4.40;;;21.70;99.90;;;;;;4973697;28;20257;-91
2023/07/17 03:42:51;;;;;;;4.95;4.18;;;21.80;99.90;;;;;;4973427;28;20214;-89
2023/07/17 03:45:17;;;;;;;4.82;4.10;;;21.90;99.90;;;;;;4974333;28;20668;-90
2023/07/17 03:47:43;;;;;;;7.63;4.85;;;21.90;99.90;;;;;;4973605;28;20202;-90
2023/07/17 03:50:09;;;;;;;9.55;4.88;;;21.90;99.90;;;;;;4973233;28;20194;-90
2023/07/17 03:52:35;;;;;;;7.55;5.47;;;22.00;99.90;;;;;;4957121;28;20183;-89
2023/07/17 03:55:01;;;;;;;6.30;4.75;;;22.10;99.90;;;;;;4973178;28;20691;-90
2023/07/17 03:57:27;;;;;;;10.65;5.75;;;22.20;99.90;;;;;;4974225;28;20182;-90
2023/07/17 03:59:54;;;;;;;6.65;5.78;;;22.30;99.90;;;;;;4973535;28;20383;-90
2023/07/17 04:02:21;;;;;;;6.93;5.47;;;22.50;99.90;;;;;;4974699;28;20232;-90
2023/07/17 04:04:47;;;;;;;8.55;7.20;;;22.60;99.90;;;;;;4973931;28;20189;-90
2023/07/17 04:07:13;;;;;;;8.40;6.72;;;22.70;99.90;;;;;;4974343;28;20198;-90
2023/07/17 04:09:39;;;;;;;8.10;6.32;;;22.80;99.90;;;;;;4974006;28;20548;-90
2023/07/17 04:12:05;;;;;;;9.05;6.05;;;22.90;99.90;;;;;;4973222;28;20273;-90
2023/07/17 04:14:32;;;;;;;6.50;5.80;;;23.10;99.90;;;;;;4973223;28;20632;-90
2023/07/17 04:16:58;;;;;;;9.32;6.40;;;23.20;99.90;;;;;;4974425;28;20174;-90
2023/07/17 04:19:23;;;;;;;8.52;5.47;;;23.30;99.90;;;;;;4989737;28;20584;-91
2023/07/17 04:21:49;;;;;;;7.75;5.43;;;23.40;99.90;;;;;;4986235;28;20186;-90
2023/07/17 04:24:15;;;;;;;8.13;6.07;;;23.40;99.90;;;;;;4984298;28;20189;-91
2023/07/17 04:26:40;;;;;;;8.05;5.50;;;23.40;99.90;;;;;;4982882;28;21012;-93
2023/07/17 04:29:06;;;;;;;6.43;5.25;;;23.50;99.90;;;;;;4980684;28;20682;-90
2023/07/17 04:31:32;;;;;;;7.90;4.78;;;23.60;99.90;;;;;;4971575;28;20178;-91
2023/07/17 04:33:58;;;;;;;6.75;5.07;;;23.60;99.90;;;;;;4978106;28;20197;-90
2023/07/17 04:36:24;;;;;;;6.25;3.92;;;23.60;99.90;;;;;;4961565;28;20204;-90
2023/07/17 04:38:49;;;;;;;4.80;4.22;;;23.70;99.90;;;;;;4979211;28;20280;-90
2023/07/17 04:41:20;;;;;;;5.57;4.47;;;23.70;99.90;;;;;;4995589;28;20606;-92
2023/07/17 04:43:46;;;;;;;5.43;4.45;;;23.70;99.90;;;;;;4995607;28;20182;-90
2023/07/17 04:46:14;;;;;;;9.32;4.32;;;23.70;99.90;;;;;;4979059;28;20801;-91
2023/07/17 04:48:39;;;;;;;5.88;3.92;;;23.80;99.90;;;;;;4996642;28;20210;-91
2023/07/17 04:51:06;;;;;;;5.60;3.95;;;23.80;99.90;;;;;;4995404;28;20544;-90
2023/07/17 04:53:31;;;;;;;5.22;4.55;;;24.00;99.90;;;;;;4979248;28;20188;-90
2023/07/17 04:55:57;;;;;;;4.43;3.72;;;24.00;99.90;;;;;;4995739;28;20268;-91
2023/07/17 04:58:25;;;;;;;10.38;4.20;;;24.00;99.90;;;;;;4996791;28;20251;-91
2023/07/17 05:00:51;;;;;;;7.72;4.40;;;24.10;99.90;;;;;;4979676;28;20189;-91
2023/07/17 05:03:16;;;;;;;4.72;3.67;;;24.20;99.90;;;;;;4995535;28;20533;-90
2023/07/17 05:05:49;;;;;;;5.53;4.18;;;24.20;99.90;;;;;;4963911;28;20561;-90
2023/07/17 05:08:17;;;;;;;5.28;4.18;;;24.30;99.90;;;;;;4976743;28;20555;-92
2023/07/17 05:10:43;;;;;;;5.30;3.53;;;24.40;99.90;;;;;;4965274;28;20194;-91
2023/07/17 05:13:09;;;;;;;4.10;3.40;;;24.40;99.90;;;;;;4963060;28;20194;-90
2023/07/17 05:15:34;;;;;;;5.13;3.90;;;24.50;99.90;;;;;;4964144;28;20281;-91
2023/07/17 05:18:00;;;;;;;4.95;3.83;;;24.50;99.90;;;;;;4967328;28;20297;-91
2023/07/17 05:20:26;;;;;;;4.50;3.65;;;24.60;99.90;;;;;;4955157;29;20604;-93
2023/07/17 05:22:52;;;;;;;5.68;3.42;;;24.60;99.90;;;;;;4958919;28;20194;-89
2023/07/17 05:25:17;;;;;;;4.05;3.15;;;24.70;99.90;;;;;;4985934;28;20191;-88
2023/07/17 05:27:43;;;;;;;6.70;4.75;;;24.80;99.90;;;;;;4975490;28;20238;-89
2023/07/17 05:30:09;;;;;;;5.10;3.50;;;24.90;99.90;;;;;;4964374;28;20218;-88
2023/07/17 05:32:35;;;;;;;4.25;3.38;;;25.00;99.90;;;;;;4969168;28;20189;-90
2023/07/17 05:35:01;;;;;;;3.75;3.40;;;25.00;99.90;;;;;;4959897;28;20186;-89
2023/07/17 05:37:27;;;;;;;4.93;3.15;;;25.10;99.90;;;;;;5003309;28;20195;-90
2023/07/17 05:39:52;;;;;;;5.70;3.40;;;25.30;99.90;;;;;;4967321;28;20217;-90
2023/07/17 05:42:18;;;;;;;5.15;2.88;;;25.40;99.90;;;;;;4982047;28;20198;-90
2023/07/17 05:44:44;;;;;;;4.63;3.25;;;25.50;99.90;;;;;;4983804;28;20707;-90
2023/07/17 05:47:10;;;;;;;4.88;3.08;;;25.60;99.90;;;;;;4954094;28;20241;-90
2023/07/17 05:49:36;;;;;;;4.20;2.60;;;25.60;99.90;;;;;;4967489;28;20175;-91
2023/07/17 05:52:01;;;;;;;5.05;2.90;;;25.70;99.90;;;;;;4969765;28;20185;-90
2023/07/17 05:54:27;;;;;;;4.07;3.10;;;25.80;99.90;;;;;;4972399;28;20196;-92
2023/07/17 05:56:53;;;;;;;3.58;2.88;;;25.80;99.90;;;;;;4954467;28;20213;-89
2023/07/17 05:59:18;;;;;;;7.05;3.50;;;25.90;99.90;;;;;;5005236;28;20325;-88
2023/07/17 06:01:44;;;;;;;3.55;2.90;;;25.90;99.90;;;;;;4957798;28;20277;-91
2023/07/17 06:04:09;;;;;;;3.13;2.83;;;26.00;99.90;;;;;;4957784;28;20189;-89
2023/07/17 06:06:35;;;;;;;4.18;3.22;;;26.10;99.90;;;;;;4974735;28;20194;-89
2023/07/17 06:09:01;;;;;;;5.55;3.53;;;26.20;99.90;;;;;;4972820;28;20680;-88
2023/07/17 06:11:27;;;;;;;4.43;2.90;;;26.20;99.90;;;;;;4969025;28;20190;-89
2023/07/17 06:13:53;;;;;;;8.00;3.20;;;26.30;99.90;;;;;;5005930;28;20643;-90
2023/07/17 06:16:18;;;;;;;4.47;3.60;;;26.40;99.90;;;;;;4966073;28;20239;-89
2023/07/17 06:18:44;;;;;;;4.63;2.90;;;26.40;99.90;;;;;;4996103;28;20636;-89
2023/07/17 06:21:10;;;;;;;6.60;2.53;;;26.50;99.90;;;;;;4979361;28;20174;-89
2023/07/17 06:23:36;;;;;;;4.28;3.15;;;26.60;99.90;;;;;;4993939;28;20194;-89
2023/07/17 06:26:01;;;;;;;4.80;2.90;;;26.70;99.90;;;;;;4994050;28;20270;-89
2023/07/17 06:28:29;;;;;;;3.58;2.85;;;26.70;99.90;;;;;;4966304;28;20214;-90
2023/07/17 06:30:54;;;;;;;2.97;2.53;;;26.80;99.90;;;;;;4999537;28;20214;-90
2023/07/17 06:33:21;;;;;;;3.47;2.53;;;26.80;99.90;;;;;;4974334;28;20265;-89
2023/07/17 06:35:48;;;;;;;3.10;2.60;;;26.90;98.90;;;;;;4973403;28;20186;-90
2023/07/17 06:38:13;;;;;;;7.90;3.03;;;26.90;98.80;;;;;;4973664;28;20187;-90
2023/07/17 06:40:41;;;;;;;4.10;2.45;;;26.90;98.50;;;;;;4967669;28;20191;-89
2023/07/17 06:43:08;;;;;;;3.45;2.45;;;26.80;99.10;;;;;;4962958;28;20225;-89
2023/07/17 06:45:34;;;;;;;2.30;2.10;;;27.10;98.00;;;;;;4975887;28;20239;-89
2023/07/17 06:48:00;;;;;;;5.10;3.08;;;27.10;97.80;;;;;;4995319;28;20230;-88
2023/07/17 06:50:25;;;;;;;2.88;2.45;;;27.30;98.40;;;;;;4959422;28;20191;-89
2023/07/17 06:52:51;;;;;;;3.38;2.40;;;27.50;98.00;;;;;;4938646;29;20288;-89
2023/07/17 06:55:17;;;;;;;2.38;2.10;;;27.70;97.10;;;;;;4938687;29;20222;-88
2023/07/17 06:57:43;;;;;;;2.92;2.00;;;27.90;96.10;;;;;;4938284;29;20191;-88
2023/07/17 07:00:09;;;;;;;4.30;2.63;;;28.00;95.10;;;;;;4959201;28;20677;-89
2023/07/17 07:02:35;;;;;;;2.83;2.05;;;28.00;94.20;;;;;;4970958;28;20190;-89
2023/07/17 07:05:01;;;;;;;2.28;2.08;;;28.10;93.40;;;;;;4973112;28;20281;-87
2023/07/17 07:07:26;;;;;;;2.40;2.00;;;28.20;93.30;;;;;;4975174;28;20217;-88
2023/07/17 07:09:52;;;;;;;5.78;1.98;;;28.20;91.70;;;;;;4957346;28;20206;-88
2023/07/17 07:12:18;;;;;;;2.83;2.08;;;28.20;91.30;;;;;;4973471;28;20170;-88
2023/07/17 07:14:44;;;;;;;2.10;1.88;;;28.20;91.00;;;;;;4974656;28;20182;-88
2023/07/17 07:17:09;;;;;;;2.67;2.30;;;28.20;91.70;;;;;;4973421;28;20189;-87
2023/07/17 07:19:35;;;;;;;4.00;2.40;;;28.10;90.70;;;;;;4973307;28;20245;-88
2023/07/17 07:22:03;;;;;;;3.13;2.20;;;28.00;90.40;;;;;;4972948;28;20691;-89
2023/07/17 07:24:29;;;;;;;4.30;2.50;;;28.00;91.50;;;;;;4974709;28;20197;-89
2023/07/17 07:26:54;;;;;;;2.55;1.80;;;28.00;91.90;;;;;;4974269;28;20627;-88
2023/07/17 07:29:20;;;;;;;2.47;2.20;;;28.00;92.20;;;;;;4974423;28;20636;-88
2023/07/17 07:31:46;;;;;;;2.88;2.10;;;27.90;92.10;;;;;;4973291;28;20245;-88
2023/07/17 07:34:11;;;;;;;3.10;2.10;;;28.00;92.70;;;;;;4956753;28;20179;-88
2023/07/17 07:36:37;;;;;;;2.38;2.17;;;28.10;92.10;;;;;;4974482;28;20250;-87
2023/07/17 07:39:05;;;;;;;3.42;2.25;;;28.20;90.90;;;;;;4956831;28;20197;-87
2023/07/17 07:41:32;;;;;;;2.15;1.92;;;28.20;90.70;;;;;;4980481;28;20185;-87
2023/07/17 07:43:58;;;;;;;1.85;1.75;;;28.10;90.50;;;;;;4981529;28;20236;-87
2023/07/17 07:46:24;;;;;;;5.72;1.98;;;28.10;90.50;;;;;;4961166;28;20234;-88
2023/07/17 07:48:50;;;;;;;3.10;2.05;;;28.20;90.50;;;;;;4972499;28;20728;-88
2023/07/17 07:51:15;;;;;;;2.10;1.80;;;28.10;90.70;;;;;;4974370;28;20193;-88
2023/07/17 07:53:41;;;;;;;2.80;1.80;;;28.10;90.00;;;;;;4973589;28;20174;-88
2023/07/17 07:56:06;;;;;;;1.98;1.85;;;28.00;90.00;;;;;;4972866;28;20183;-88
2023/07/17 07:58:32;;;;;;;3.92;2.72;;;28.00;90.70;;;;;;4973234;28;20190;-88
2023/07/17 08:00:58;;;;;;;3.35;2.28;;;28.00;90.20;;;;;;4974018;28;20545;-88
2023/07/17 08:03:23;;;;;;;3.10;2.38;;;28.00;90.10;;;;;;4973146;28;20205;-88
2023/07/17 08:05:49;;;;;;;4.00;2.40;;;27.90;90.60;;;;;;4972267;28;20210;-88
2023/07/17 08:08:15;;;;;;;4.57;2.17;;;27.90;91.00;;;;;;4973263;28;20697;-87
2023/07/17 08:10:40;;;;;;;3.30;2.80;;;27.80;90.70;;;;;;4973987;28;20198;-87
2023/07/17 08:13:06;;;;;;;2.85;2.33;;;27.80;91.00;;;;;;4976070;28;20175;-88
2023/07/17 08:15:32;;;;;;;2.30;2.10;;;27.70;90.40;;;;;;4976450;28;20193;-88
2023/07/17 08:17:57;;;;;;;2.08;1.88;;;27.70;90.70;;;;;;4975654;28;20187;-88
2023/07/17 08:20:23;;;;;;;3.75;2.97;;;27.70;91.60;;;;;;4976224;28;20189;-88
2023/07/17 08:22:54;;;;;;;2.22;2.00;;;27.60;90.40;;;;;;4960099;28;20187;-88
2023/07/17 08:25:23;;;;;;;2.33;2.13;;;27.60;90.50;;;;;;4960845;28;20194;-88
2023/07/17 08:27:49;;;;;;;2.75;2.08;;;27.60;90.00;;;;;;4975815;28;20293;-88
2023/07/17 08:30:15;;;;;;;4.13;2.03;;;27.50;90.10;;;;;;4959634;28;20714;-87
2023/07/17 08:32:40;;;;;;;2.50;2.25;;;27.60;91.00;;;;;;4976967;28;20174;-88
2023/07/17 08:35:07;;;;;;;2.83;2.38;;;27.60;90.70;;;;;;4975756;28;20185;-87
2023/07/17 08:37:33;;;;;;;2.38;2.17;;;27.60;90.20;;;;;;4975926;28;20674;-87
2023/07/17 08:39:59;;;;;;;3.70;2.45;;;27.60;90.90;;;;;;4959401;28;20191;-87
2023/07/17 08:42:24;;;;;;;2.83;2.30;;;27.60;90.50;;;;;;4975669;28;20271;-87
2023/07/17 08:44:52;;;;;;;6.10;2.50;;;27.60;90.70;;;;;;4975558;28;20189;-87
2023/07/17 08:47:19;;;;;;;3.13;2.30;;;27.70;90.60;;;;;;4975405;28;20214;-90
2023/07/17 08:49:46;;;;;;;2.17;1.98;;;27.60;91.10;;;;;;4977056;28;20187;-90
2023/07/17 08:52:14;;;;;;;2.67;2.20;;;27.60;91.50;;;;;;4995249;28;20667;-90
2023/07/17 08:54:40;;;;;;;2.45;2.22;;;27.50;91.00;;;;;;4963404;28;20197;-92
2023/07/17 08:57:06;;;;;;;2.63;2.42;;;27.40;90.10;;;;;;4968977;28;20186;-90
2023/07/17 08:59:34;;;;;;;4.38;3.53;;;27.30;90.50;;;;;;4989455;28;20199;-89
2023/07/17 09:02:06;;;;;;;2.85;2.50;;;27.20;91.00;;;;;;4999058;28;20167;-90
2023/07/17 09:04:33;;;;;;;3.78;2.55;;;27.10;91.70;;;;;;4988365;28;20543;-91
2023/07/17 09:06:58;;;;;;;3.83;2.20;;;27.00;91.80;;;;;;4968114;28;20245;-90
2023/07/17 09:09:24;;;;;;;3.95;2.83;;;26.80;92.40;;;;;;4986399;28;20194;-89
2023/07/17 09:12:17;;;;;;;6.35;2.40;;;26.70;92.80;;;;;;4985909;28;20666;-89
2023/07/17 09:14:43;;;;;;;3.28;2.83;;;26.60;94.20;;;;;;4983932;28;20271;-89
2023/07/17 09:17:10;;;;;;;10.88;3.40;;;26.50;97.70;;;;;;4983314;28;20189;-93
2023/07/17 09:19:36;;;;;;;9.32;4.75;;;26.10;99.90;;;;;;4984113;28;20181;-93
2023/07/17 09:22:03;;;;;;;10.45;6.45;;;25.50;99.90;;;;;;4991274;28;20185;-91
2023/07/17 09:24:31;;;;;;;9.82;7.00;;;24.60;99.90;;;;;;4983880;28;20183;-95
2023/07/17 09:26:57;;;;;;;7.63;6.28;;;23.90;99.90;;;;;;4987080;28;20178;-94
2023/07/17 09:29:24;;;;;;;12.70;7.95;;;23.40;99.90;;;;;;4986606;28;20358;-91
2023/07/17 09:31:50;;;;;;;11.07;8.60;;;23.10;99.90;;;;;;4984143;28;20185;-93
2023/07/17 09:34:16;;;;;;;15.45;9.82;;;22.80;99.90;;;;;;4989755;28;20244;-94
2023/07/17 09:36:42;;;;;;;17.33;11.10;;;22.60;99.90;;;;;;4988250;28;20190;-93
2023/07/17 09:39:09;;;;;;;15.68;9.98;;;22.30;99.90;;;;;;4987205;28;20205;-93
2023/07/17 09:41:35;;;;;;;8.55;7.10;;;22.20;99.90;;;;;;4983665;28;20187;-92
2023/07/17 09:44:05;;;;;;;10.18;7.20;;;22.10;99.90;;;;;;4954358;28;20274;-90
2023/07/17 09:46:36;;;;;;;6.55;3.95;;;21.80;99.90;;;;;;4982372;28;20261;-90
2023/07/17 09:49:09;;;;;;;6.18;3.88;;;21.50;99.90;;;;;;4983557;28;20722;-93
2023/07/17 09:51:35;;;;;;;6.97;3.67;;;21.30;99.90;;;;;;5004994;28;20206;-95
2023/07/17 09:54:05;;;;;;;7.28;3.97;;;21.20;99.90;;;;;;5022153;28;20179;-94
2023/07/17 09:56:32;;;;;;;5.47;3.67;;;21.10;99.90;;;;;;4981396;28;20195;-93
2023/07/17 09:59:15;;;;;;;6.97;4.40;;;21.10;99.90;;;;;;4981667;28;20196;-92
2023/07/17 10:01:45;;;;;;;5.25;4.28;;;21.00;99.90;;;;;;4983436;28;20659;-91
2023/07/17 10:04:13;;;;;;;5.60;3.95;;;21.00;99.90;;;;;;4978560;28;20186;-91
2023/07/17 10:06:42;;;;;;;7.80;4.68;;;20.90;99.90;;;;;;5011640;28;20193;-90
2023/07/17 10:09:11;;;;;;;7.68;4.93;;;20.90;99.90;;;;;;4980344;28;20218;-90
2023/07/17 10:11:36;;;;;;;5.95;4.03;;;20.80;99.90;;;;;;4981925;28;20186;-89
2023/07/17 10:14:02;;;;;;;6.65;4.20;;;20.60;99.90;;;;;;4995552;28;20286;-90
2023/07/17 10:16:28;;;;;;;5.45;4.07;;;20.40;99.90;;;;;;4980900;28;20193;-90
2023/07/17 10:18:55;;;;;;;8.40;4.03;;;20.30;99.90;;;;;;4994962;28;20581;-89
2023/07/17 10:21:22;;;;;;;6.15;3.95;;;20.30;99.90;;;;;;4978763;28;20179;-92
2023/07/17 10:23:49;;;;;;;6.10;3.95;;;20.20;99.90;;;;;;5012083;28;20179;-89
2023/07/17 10:26:21;;;;;;;5.90;4.00;;;20.20;99.90;;;;;;4983688;28;20186;-91
2023/07/17 10:28:53;;;;;;;4.93;4.43;;;20.00;99.90;;;;;;4988395;28;20210;-90
2023/07/17 10:31:23;;;;;;;6.43;4.40;;;20.00;99.90;;;;;;4988209;28;20188;-90
2023/07/17 10:34:02;;;;;;;5.65;4.53;;;19.90;99.90;;;;;;4972399;28;20182;-91
2023/07/17 10:36:44;;;;;;;7.35;4.50;;;19.90;99.90;;;;;;4986634;28;20186;-90
2023/07/17 10:39:19;;;;;;;4.78;4.32;;;19.80;99.90;;;;;;4984764;28;20238;-91
2023/07/17 10:41:49;;;;;;;8.38;3.50;;;19.80;99.90;;;;;;4977920;28;20178;-93
2023/07/17 10:44:19;;;;;;;6.15;3.80;;;19.80;99.90;;;;;;4989833;28;20242;-88
2023/07/17 10:46:46;;;;;;;4.80;3.90;;;19.60;99.90;;;;;;4987556;28;20226;-92
2023/07/17 10:49:17;;;;;;;5.43;4.07;;;19.60;99.90;;;;;;4968935;28;20202;-92
2023/07/17 10:51:47;;;;;;;4.63;4.00;;;19.60;99.90;;;;;;4986481;28;20707;-92
2023/07/17 10:54:14;;;;;;;6.13;4.25;;;19.60;99.90;;;;;;4987420;28;20185;-91
2023/07/17 10:56:50;;;;;;;6.63;3.83;;;19.60;99.90;;;;;;4990957;28;20239;-92
2023/07/17 10:59:19;;;;;;;7.07;3.60;;;19.70;99.90;;;;;;4987907;28;20261;-93
2023/07/17 11:01:46;;;;;;;4.57;3.35;;;19.60;99.90;;;;;;5000775;28;20240;-93
2023/07/17 11:04:12;;;;;;;4.75;3.72;;;19.60;99.90;;;;;;5003366;28;20179;-91
2023/07/17 11:06:37;;;;;;;4.15;3.75;;;19.60;99.90;;;;;;5008723;28;20198;-93
2023/07/17 11:09:03;;;;;;;11.57;4.15;;;19.60;99.90;;;;;;4987808;28;20236;-93
2023/07/17 11:11:31;;;;;;;6.63;4.35;;;19.50;99.90;;;;;;4977924;28;20182;-92
2023/07/17 11:13:58;;;;;;;5.38;4.25;;;19.50;99.90;;;;;;4995471;28;20600;-94
2023/07/17 11:16:24;;;;;;;4.85;3.67;;;19.60;99.90;;;;;;4964769;28;20198;-95
2023/07/17 11:18:55;;;;;;;6.18;3.97;;;19.60;99.90;;;;;;4984887;28;20178;-95
2023/07/17 11:21:23;;;;;;;4.25;3.75;;;19.50;99.90;;;;;;4993724;28;20175;-93
2023/07/17 11:23:50;;;;;;;5.25;3.50;;;19.60;99.90;;;;;;4972657;28;20186;-95
2023/07/17 11:26:23;;;;;;;4.47;2.97;;;19.60;99.90;;;;;;4990370;28;20183;-95
2023/07/17 11:28:51;;;;;;;6.68;3.80;;;19.60;99.90;;;;;;4997819;28;20214;-95
2023/07/17 11:31:23;;;;;;;4.03;3.35;;;19.70;99.90;;;;;;4998628;28;20221;-94
2023/07/17 11:34:00;;;;;;;6.07;3.67;;;19.80;99.90;;;;;;5001535;28;20174;-93
2023/07/17 11:36:27;;;;;;;4.53;3.50;;;19.90;99.90;;;;;;4991676;28;20179;-92
2023/07/17 11:38:57;;;;;;;7.05;3.72;;;20.00;99.90;;;;;;4992653;28;20166;-94
2023/07/17 11:41:24;;;;;;;4.88;3.78;;;20.00;99.90;;;;;;4985633;28;20628;-91
2023/07/17 11:43:59;;;;;;;6.47;4.32;;;20.10;99.90;;;;;;5009468;28;20166;-93
2023/07/17 11:46:25;;;;;;;5.22;3.47;;;20.20;99.90;;;;;;4994297;28;20236;-90
2023/07/17 11:48:53;;;;;;;6.22;3.65;;;20.30;99.90;;;;;;5013774;28;20221;-90
2023/07/17 11:51:24;;;;;;;3.63;3.15;;;20.40;99.90;;;;;;4997886;28;20241;-92
2023/07/17 11:53:55;;;;;;;4.13;3.50;;;20.50;99.90;;;;;;5003622;28;20182;-95
2023/07/17 11:56:32;;;;;;;5.32;3.70;;;20.50;99.90;;;;;;5000591;28;20255;-94
2023/07/17 11:58:57;;;;;;;5.13;3.35;;;20.60;99.90;;;;;;4994610;28;20178;-93
2023/07/17 12:01:23;;;;;;;6.60;3.28;;;20.60;99.90;;;;;;4999019;28;20198;-94
2023/07/17 12:03:48;;;;;;;4.38;3.03;;;20.70;99.90;;;;;;4998950;28;20185;-94
2023/07/17 12:06:14;;;;;;;3.83;3.22;;;20.80;99.90;;;;;;5015279;28;20264;-95
2023/07/17 12:08:41;;;;;;;5.60;3.65;;;20.80;99.90;;;;;;4998483;28;20209;-93
2023/07/17 12:11:07;;;;;;;5.25;3.72;;;20.90;99.90;;;;;;4995684;28;20194;-94
2023/07/17 12:13:32;;;;;;;6.97;3.42;;;21.00;99.90;;;;;;4996076;28;20289;-93
2023/07/17 12:15:58;;;;;;;6.35;4.60;;;21.10;99.90;;;;;;5001397;28;20674;-94
2023/07/17 12:18:24;;;;;;;4.82;3.30;;;21.10;99.90;;;;;;5009727;28;20225;-96
2023/07/17 12:20:49;;;;;;;9.60;3.67;;;21.20;99.90;;;;;;5006527;28;20221;-93
2023/07/17 12:23:15;;;;;;;5.65;3.90;;;21.30;99.90;;;;;;5006182;28;20180;-92
2023/07/17 12:25:42;;;;;;;3.13;2.78;;;21.30;99.90;;;;;;4987778;28;20662;-93
2023/07/17 12:28:08;;;;;;;6.55;3.42;;;21.40;99.90;;;;;;5003649;28;20202;-96
2023/07/17 12:30:34;;;;;;;4.72;3.10;;;21.60;99.90;;;;;;4994041;28;20182;-96
2023/07/17 12:33:04;;;;;;;3.60;3.25;;;21.60;99.90;;;;;;5010795;28;20193;-96
2023/07/17 12:35:30;;;;;;;3.60;2.72;;;21.70;99.90;;;;;;5008955;28;20182;-92
2023/07/17 12:37:56;;;;;;;5.97;3.65;;;21.80;99.90;;;;;;5008528;28;20193;-96
2023/07/17 12:40:21;;;;;;;4.50;2.65;;;22.10;99.90;;;;;;5036789;23;20243;-96
2023/07/17 12:42:50;;;;;;;4.93;2.80;;;22.30;99.90;;;;;;4951836;29;20194;-94